createdAt,value
2017-11-20T00:01:08.386Z,2.80
2017-11-20T00:03:36.200Z,2.73
2017-11-20T00:06:03.650Z,3.63
2017-11-20T00:08:31.065Z,2.97
2017-11-20T00:10:58.493Z,2.63
2017-11-20T00:13:27.563Z,2.80
2017-11-20T00:15:54.978Z,2.40
2017-11-20T00:18:22.402Z,2.57
2017-11-20T00:20:50.241Z,3.53
2017-11-20T00:23:17.667Z,2.50
2017-11-20T00:25:45.313Z,3.00
2017-11-20T00:28:12.741Z,3.13
2017-11-20T00:30:40.828Z,3.50
2017-11-20T00:33:08.795Z,2.73
2017-11-20T00:35:36.552Z,2.80
2017-11-20T00:38:03.986Z,2.53
2017-11-20T00:40:31.396Z,3.20
2017-11-20T00:42:58.839Z,2.40
2017-11-20T00:45:26.269Z,2.70
2017-11-20T00:47:53.690Z,2.90
2017-11-20T00:50:21.139Z,3.00
2017-11-20T00:52:48.567Z,3.30
2017-11-20T00:55:15.986Z,2.30
2017-11-20T00:57:43.781Z,3.37
2017-11-20T01:00:11.204Z,3.10
2017-11-20T01:02:38.625Z,2.57
2017-11-20T01:05:06.058Z,2.80
2017-11-20T01:07:33.482Z,2.43
2017-11-20T01:10:00.905Z,3.00
2017-11-20T01:12:28.918Z,2.73
2017-11-20T01:14:56.340Z,2.67
2017-11-20T01:17:23.765Z,2.90
2017-11-20T01:19:51.217Z,3.80
2017-11-20T01:22:18.642Z,5.77
2017-11-20T01:24:46.080Z,4.40
2017-11-20T01:27:13.505Z,3.10
2017-11-20T01:29:41.318Z,3.47
2017-11-20T01:32:08.743Z,3.20
2017-11-20T01:34:36.200Z,2.80
2017-11-20T01:37:03.621Z,4.40
2017-11-20T01:39:31.037Z,3.13
2017-11-20T01:41:58.574Z,3.60
2017-11-20T01:44:25.986Z,2.67
2017-11-20T01:46:53.800Z,3.07
2017-11-20T01:49:21.272Z,3.00
2017-11-20T01:51:48.682Z,2.67
2017-11-20T01:54:16.505Z,2.57
2017-11-20T01:56:43.960Z,3.27
2017-11-20T01:59:11.394Z,2.93
2017-11-20T02:01:38.836Z,15.63
2017-11-20T02:04:06.268Z,7.37
2017-11-20T02:06:33.698Z,19.60
2017-11-20T02:09:01.113Z,4.37
2017-11-20T02:11:28.570Z,2.87
2017-11-20T02:13:56.000Z,3.20
2017-11-20T02:16:23.424Z,4.23
2017-11-20T02:18:51.547Z,2.93
2017-11-20T02:21:18.965Z,3.73
2017-11-20T02:23:46.390Z,3.17
2017-11-20T02:26:13.832Z,2.63
2017-11-20T02:28:41.251Z,3.50
2017-11-20T02:31:08.676Z,2.97
2017-11-20T02:33:36.777Z,2.67
2017-11-20T02:36:04.194Z,2.77
2017-11-20T02:38:32.018Z,2.70
2017-11-20T02:40:59.437Z,2.80
2017-11-20T02:43:26.886Z,2.77
2017-11-20T02:45:54.306Z,2.77
2017-11-20T02:48:21.727Z,3.00
2017-11-20T02:50:49.165Z,2.90
2017-11-20T02:53:16.594Z,3.00
2017-11-20T02:55:44.051Z,10.10
2017-11-20T02:58:11.849Z,3.03
2017-11-20T03:00:39.265Z,2.93
2017-11-20T03:03:06.681Z,4.07
2017-11-20T03:05:34.138Z,3.00
2017-11-20T03:08:01.566Z,3.17
2017-11-20T03:10:29.001Z,3.60
2017-11-20T03:12:56.442Z,3.00
2017-11-20T03:15:23.869Z,3.63
2017-11-20T03:17:51.685Z,3.30
2017-11-20T03:20:19.133Z,4.03
2017-11-20T03:22:46.562Z,3.60
2017-11-20T03:25:14.372Z,3.30
2017-11-20T03:27:42.128Z,3.83
2017-11-20T03:30:09.584Z,3.90
2017-11-20T03:32:36.995Z,3.63
2017-11-20T03:35:04.821Z,4.07
2017-11-20T03:37:32.252Z,3.80
2017-11-20T03:39:59.683Z,3.30
2017-11-20T03:42:27.105Z,4.00
2017-11-20T03:44:54.530Z,4.13
2017-11-20T03:47:21.963Z,4.20
2017-11-20T03:49:50.553Z,3.37
2017-11-20T03:52:17.978Z,3.47
2017-11-20T03:54:45.402Z,4.73
2017-11-20T03:57:13.055Z,4.00
2017-11-20T03:59:40.478Z,3.83
2017-11-20T04:02:07.906Z,3.27
2017-11-20T04:04:35.698Z,3.63
2017-11-20T04:07:03.124Z,3.83
2017-11-20T04:09:30.549Z,3.40
2017-11-20T04:11:58.377Z,3.77
2017-11-20T04:14:25.797Z,4.00
2017-11-20T04:16:53.229Z,2.70
2017-11-20T04:19:21.049Z,3.90
2017-11-20T04:21:48.485Z,4.00
2017-11-20T04:24:16.152Z,3.10
2017-11-20T04:26:43.583Z,6.80
2017-11-20T04:29:11.000Z,4.10
2017-11-20T04:31:38.461Z,4.17
2017-11-20T04:34:06.291Z,4.90
2017-11-20T04:36:33.714Z,4.60
2017-11-20T04:39:01.146Z,3.80
2017-11-20T04:41:28.974Z,4.50
2017-11-20T04:43:56.400Z,4.37
2017-11-20T04:46:23.940Z,3.80
2017-11-20T04:48:54.509Z,4.67
2017-11-20T04:51:21.941Z,3.87
2017-11-20T04:53:49.392Z,3.73
2017-11-20T04:56:16.814Z,5.03
2017-11-20T04:58:44.641Z,4.43
2017-11-20T05:01:12.098Z,3.43
2017-11-20T05:03:39.509Z,3.53
2017-11-20T05:06:06.937Z,3.73
2017-11-20T05:08:34.869Z,5.07
2017-11-20T05:11:02.298Z,4.00
2017-11-20T05:13:29.727Z,4.20
2017-11-20T05:15:57.254Z,4.50
2017-11-20T05:18:24.676Z,5.17
2017-11-20T05:20:52.101Z,4.77
2017-11-20T05:23:19.537Z,4.80
2017-11-20T05:25:47.361Z,5.20
2017-11-20T05:28:14.786Z,4.80
2017-11-20T05:30:42.216Z,4.60
2017-11-20T05:33:09.645Z,5.00
2017-11-20T05:35:37.088Z,4.20
2017-11-20T05:38:04.509Z,3.80
2017-11-20T05:40:31.931Z,4.37
2017-11-20T05:43:00.032Z,4.43
2017-11-20T05:45:27.453Z,3.47
2017-11-20T05:47:54.873Z,4.33
2017-11-20T05:50:22.325Z,4.00
2017-11-20T05:52:49.746Z,3.73
2017-11-20T05:55:17.176Z,4.03
2017-11-20T05:57:45.010Z,4.03
2017-11-20T06:00:12.423Z,3.67
2017-11-20T06:02:39.878Z,4.13
2017-11-20T06:05:07.306Z,3.90
2017-11-20T06:07:34.736Z,4.07
2017-11-20T06:10:03.386Z,4.03
2017-11-20T06:12:30.805Z,3.50
2017-11-20T06:14:58.241Z,4.40
2017-11-20T06:17:26.075Z,3.87
2017-11-20T06:19:53.500Z,4.03
2017-11-20T06:22:20.930Z,4.13
2017-11-20T06:24:48.387Z,3.60
2017-11-20T06:27:15.834Z,4.27
2017-11-20T06:29:43.635Z,3.63
2017-11-20T06:32:11.169Z,3.30
2017-11-20T06:34:38.621Z,3.70
2017-11-20T06:37:06.044Z,4.10
2017-11-20T06:39:33.506Z,5.37
2017-11-20T06:42:00.917Z,4.00
2017-11-20T06:44:28.341Z,4.10
2017-11-20T06:46:55.789Z,5.03
2017-11-20T06:49:23.211Z,4.43
2017-11-20T06:51:50.630Z,6.50
2017-11-20T06:54:18.102Z,4.30
2017-11-20T06:56:45.489Z,3.00
2017-11-20T06:59:13.426Z,3.93
2017-11-20T07:01:40.850Z,5.13
2017-11-20T07:04:08.285Z,4.83
2017-11-20T07:06:35.728Z,3.67
2017-11-20T07:09:03.160Z,3.40
2017-11-20T07:11:30.580Z,3.90
2017-11-20T07:13:58.346Z,4.10
2017-11-20T07:16:25.773Z,3.60
2017-11-20T07:18:53.207Z,3.60
2017-11-20T07:21:21.296Z,3.50
2017-11-20T07:23:48.726Z,4.00
2017-11-20T07:26:30.358Z,3.80
2017-11-20T07:29:09.554Z,4.17
2017-11-20T07:31:37.006Z,3.90
2017-11-20T07:34:16.205Z,4.60
2017-11-20T07:36:55.569Z,3.80
2017-11-20T07:39:31.261Z,3.20
2017-11-20T07:41:58.702Z,3.93
2017-11-20T07:44:26.118Z,4.00
2017-11-20T07:46:53.939Z,5.57
2017-11-20T07:49:21.477Z,4.77
2017-11-20T07:51:48.892Z,4.23
2017-11-20T07:54:16.711Z,4.03
2017-11-20T07:56:44.158Z,4.33
2017-11-20T07:59:11.586Z,3.40
2017-11-20T08:01:39.010Z,4.20
2017-11-20T08:04:06.849Z,3.80
2017-11-20T08:06:34.279Z,4.00
2017-11-20T08:09:01.712Z,3.97
2017-11-20T08:11:29.138Z,5.43
2017-11-20T08:13:56.973Z,3.53
2017-11-20T08:16:24.399Z,3.53
2017-11-20T08:18:51.843Z,4.33
2017-11-20T08:21:20.345Z,3.77
2017-11-20T08:23:47.773Z,4.40
2017-11-20T08:26:15.219Z,4.07
2017-11-20T08:28:43.034Z,3.77
2017-11-20T08:31:10.517Z,4.57
2017-11-20T08:33:37.958Z,3.67
2017-11-20T08:36:05.490Z,4.73
2017-11-20T08:38:32.909Z,4.03
2017-11-20T08:41:00.345Z,3.63
2017-11-20T08:43:28.166Z,4.53
2017-11-20T08:45:55.621Z,3.87
2017-11-20T08:48:23.352Z,4.87
2017-11-20T08:50:50.823Z,3.93
2017-11-20T08:53:18.235Z,4.60
2017-11-20T08:55:46.056Z,4.07
2017-11-20T08:58:13.490Z,3.93
2017-11-20T09:00:40.914Z,3.97
2017-11-20T09:03:09.193Z,4.10
2017-11-20T09:05:36.618Z,5.00
2017-11-20T09:08:04.036Z,4.17
2017-11-20T09:10:31.470Z,3.90
2017-11-20T09:12:58.931Z,3.70
2017-11-20T09:15:26.341Z,4.23
2017-11-20T09:17:53.770Z,4.00
2017-11-20T09:20:21.237Z,4.50
2017-11-20T09:22:48.690Z,3.97
2017-11-20T09:25:16.114Z,4.00
2017-11-20T09:27:43.528Z,3.87
2017-11-20T09:30:11.360Z,3.77
2017-11-20T09:32:38.776Z,5.10
2017-11-20T09:35:06.200Z,5.13
2017-11-20T09:37:34.045Z,4.40
2017-11-20T09:40:01.473Z,3.70
2017-11-20T09:42:28.890Z,4.47
2017-11-20T09:44:56.580Z,4.53
2017-11-20T09:47:24.002Z,4.20
2017-11-20T09:49:51.819Z,3.70
2017-11-20T09:52:19.281Z,4.23
2017-11-20T09:54:46.710Z,5.40
2017-11-20T09:57:14.129Z,4.83
2017-11-20T09:59:41.593Z,4.90
2017-11-20T10:02:09.013Z,4.17
2017-11-20T10:04:36.433Z,4.27
2017-11-20T10:07:04.237Z,4.80
2017-11-20T10:09:31.641Z,4.70
2017-11-20T10:11:59.080Z,5.23
2017-11-20T10:14:26.510Z,5.60
2017-11-20T10:16:54.330Z,5.57
2017-11-20T10:19:21.753Z,5.23
2017-11-20T10:21:49.193Z,7.07
2017-11-20T10:24:16.645Z,5.63
2017-11-20T10:26:44.073Z,5.80
2017-11-20T10:29:11.516Z,6.40
2017-11-20T10:31:38.945Z,5.57
2017-11-20T10:34:06.374Z,6.40
2017-11-20T10:36:33.807Z,6.60
2017-11-20T10:39:01.621Z,6.20
2017-11-20T10:41:29.039Z,6.00
2017-11-20T10:43:56.842Z,7.53
2017-11-20T10:46:24.266Z,5.83
2017-11-20T10:48:51.690Z,5.80
2017-11-20T10:51:19.513Z,6.47
2017-11-20T10:53:46.935Z,6.60
2017-11-20T10:56:14.362Z,6.90
2017-11-20T10:58:42.370Z,6.67
2017-11-20T11:01:09.784Z,6.40
2017-11-20T11:03:37.738Z,6.27
2017-11-20T11:06:05.182Z,6.43
2017-11-20T11:08:32.608Z,6.10
2017-11-20T11:11:01.615Z,6.20
2017-11-20T11:13:30.041Z,7.03
2017-11-20T11:15:59.104Z,6.60
2017-11-20T11:18:26.508Z,8.15
2017-11-20T11:20:53.958Z,7.60
2017-11-20T11:23:21.378Z,7.23
2017-11-20T11:25:49.290Z,7.17
2017-11-20T11:28:16.714Z,7.10
2017-11-20T11:30:44.533Z,7.23
2017-11-20T11:33:13.464Z,6.50
2017-11-20T11:35:41.301Z,7.13
2017-11-20T11:38:08.731Z,6.03
2017-11-20T11:40:36.198Z,6.03
2017-11-20T11:43:03.638Z,7.77
2017-11-20T11:45:31.053Z,7.70
2017-11-20T11:47:59.774Z,8.10
2017-11-20T11:50:27.217Z,7.43
2017-11-20T11:52:54.640Z,7.20
2017-11-20T11:55:22.477Z,8.83
2017-11-20T11:57:50.502Z,8.07
2017-11-20T12:00:17.925Z,7.83
2017-11-20T12:02:45.749Z,8.67
2017-11-20T12:05:13.585Z,7.20
2017-11-20T12:07:41.013Z,7.50
2017-11-20T12:10:08.841Z,9.60
2017-11-20T12:12:36.269Z,7.00
2017-11-20T12:15:03.696Z,8.10
2017-11-20T12:17:31.141Z,9.70
2017-11-20T12:19:58.953Z,8.40
2017-11-20T12:22:26.396Z,7.50
2017-11-20T12:24:53.985Z,7.53
2017-11-20T12:27:21.708Z,7.07
2017-11-20T12:29:49.140Z,7.20
2017-11-20T12:32:16.565Z,8.40
2017-11-20T12:34:44.024Z,8.03
2017-11-20T12:37:11.449Z,8.73
2017-11-20T12:39:38.878Z,7.00
2017-11-20T12:42:06.319Z,7.03
2017-11-20T12:44:33.746Z,8.00
2017-11-20T12:47:01.193Z,9.07
2017-11-20T12:49:28.613Z,7.50
2017-11-20T12:51:56.069Z,8.50
2017-11-20T12:54:23.505Z,8.53
2017-11-20T12:56:50.962Z,8.50
2017-11-20T12:59:18.428Z,8.70
2017-11-20T13:01:45.851Z,7.90
2017-11-20T13:04:13.677Z,8.33
2017-11-20T13:06:42.825Z,7.80
2017-11-20T13:09:14.727Z,8.83
2017-11-20T13:11:42.506Z,7.50
2017-11-20T13:14:11.140Z,7.60
2017-11-20T13:16:38.667Z,7.00
2017-11-20T13:19:07.956Z,8.20
2017-11-20T13:21:35.412Z,6.97
2017-11-20T13:24:03.833Z,6.10
2017-11-20T13:26:31.301Z,6.87
2017-11-20T13:28:58.763Z,6.20
2017-11-20T13:31:26.238Z,6.03
2017-11-20T13:33:53.672Z,5.50
2017-11-20T13:36:21.113Z,4.90
2017-11-20T13:38:49.532Z,4.93
2017-11-20T13:41:18.625Z,5.23
2017-11-20T13:43:46.508Z,4.43
2017-11-20T13:46:14.670Z,5.00
2017-11-20T13:48:42.142Z,5.00
2017-11-20T13:51:09.986Z,5.60
2017-11-20T13:53:37.461Z,4.90
2017-11-20T13:56:05.302Z,5.17
2017-11-20T13:58:33.038Z,4.67
2017-11-20T14:01:00.485Z,5.07
2017-11-20T14:03:27.933Z,4.67
2017-11-20T14:05:55.549Z,4.30
2017-11-20T14:08:24.531Z,4.30
2017-11-20T14:10:52.439Z,5.20
2017-11-20T14:13:20.151Z,4.00
2017-11-20T14:15:47.578Z,5.00
2017-11-20T14:18:15.014Z,4.40
2017-11-20T14:20:43.482Z,5.00
2017-11-20T14:23:10.940Z,5.47
2017-11-20T14:25:38.361Z,6.63
2017-11-20T14:28:06.281Z,4.90
2017-11-20T14:30:33.724Z,4.73
2017-11-20T14:33:01.152Z,5.17
2017-11-20T14:35:28.618Z,4.30
2017-11-20T14:37:56.048Z,4.67
2017-11-20T14:40:23.870Z,5.00
2017-11-20T14:42:51.624Z,5.10
2017-11-20T14:45:19.044Z,5.20
2017-11-20T14:47:46.461Z,5.60
2017-11-20T14:50:13.895Z,5.77
2017-11-20T14:52:41.348Z,5.50
2017-11-20T14:55:08.799Z,5.17
2017-11-20T14:57:36.211Z,5.50
2017-11-20T15:00:04.208Z,5.70
2017-11-20T15:02:31.641Z,5.90
2017-11-20T15:04:59.052Z,6.53
2017-11-20T15:07:26.510Z,7.60
2017-11-20T15:09:53.934Z,6.43
2017-11-20T15:12:21.361Z,7.17
2017-11-20T15:14:48.820Z,6.93
2017-11-20T15:17:16.249Z,7.47
2017-11-20T15:19:44.070Z,6.77
2017-11-20T15:22:11.520Z,8.10
2017-11-20T15:24:39.377Z,7.40
2017-11-20T15:27:06.811Z,7.40
2017-11-20T15:29:34.319Z,6.93
2017-11-20T15:32:01.741Z,8.10
2017-11-20T15:34:30.915Z,8.53
2017-11-20T15:36:58.357Z,8.30
2017-11-20T15:39:27.009Z,8.73
2017-11-20T15:41:54.486Z,9.37
2017-11-20T15:44:22.329Z,9.03
2017-11-20T15:46:49.803Z,9.40
2017-11-20T15:49:17.655Z,11.07
2017-11-20T15:51:45.101Z,9.50
2017-11-20T15:54:12.566Z,13.97
2017-11-20T15:56:40.003Z,10.13
2017-11-20T15:59:07.453Z,10.40
2017-11-20T16:01:34.929Z,11.53
2017-11-20T16:04:02.358Z,11.17
2017-11-20T16:06:29.885Z,10.90
2017-11-20T16:08:57.609Z,11.30
2017-11-20T16:11:25.457Z,12.53
2017-11-20T16:13:52.894Z,11.13
2017-11-20T16:16:20.361Z,13.30
2017-11-20T16:18:48.669Z,12.17
2017-11-20T16:21:16.508Z,13.37
2017-11-20T16:23:43.936Z,13.20
2017-11-20T16:26:12.219Z,12.30
2017-11-20T16:28:39.670Z,12.10
2017-11-20T16:31:07.122Z,12.00
2017-11-20T16:33:34.810Z,12.77
2017-11-20T16:36:02.259Z,16.13
2017-11-20T16:38:29.760Z,16.53
2017-11-20T16:40:58.308Z,13.97
2017-11-20T16:43:25.789Z,16.50
2017-11-20T16:45:53.648Z,13.30
2017-11-20T16:48:21.489Z,14.90
2017-11-20T16:50:50.067Z,30.43
2017-11-20T16:53:17.533Z,18.10
2017-11-20T16:55:44.977Z,15.77
2017-11-20T16:58:24.940Z,14.60
2017-11-20T17:00:52.383Z,14.40
2017-11-20T17:03:31.603Z,14.60
2017-11-20T17:05:59.091Z,14.57
2017-11-20T17:08:26.534Z,15.67
2017-11-20T17:10:54.390Z,15.63
2017-11-20T17:13:21.834Z,17.63
2017-11-20T17:15:49.285Z,18.03
2017-11-20T17:18:16.737Z,17.27
2017-11-20T17:20:44.202Z,16.33
2017-11-20T17:23:11.658Z,16.47
2017-11-20T17:25:39.102Z,16.47
2017-11-20T17:28:06.569Z,15.97
2017-11-20T17:30:34.008Z,16.63
2017-11-20T17:33:01.466Z,17.67
2017-11-20T17:35:28.920Z,15.43
2017-11-20T17:37:56.367Z,16.70
2017-11-20T17:40:23.826Z,16.07
2017-11-20T17:42:51.301Z,15.70
2017-11-20T17:45:18.759Z,16.77
2017-11-20T17:47:46.202Z,19.00
2017-11-20T17:50:13.853Z,16.50
2017-11-20T17:52:41.271Z,18.50
2017-11-20T17:55:08.730Z,18.73
2017-11-20T17:57:36.310Z,18.30
2017-11-20T18:00:03.722Z,16.77
2017-11-20T18:02:31.561Z,16.30
2017-11-20T18:04:59.269Z,18.53
2017-11-20T18:07:26.715Z,20.00
2017-11-20T18:09:54.145Z,18.57
2017-11-20T18:12:21.603Z,19.87
2017-11-20T18:14:49.062Z,18.23
2017-11-20T18:17:16.914Z,16.90
2017-11-20T18:19:44.340Z,17.63
2017-11-20T18:22:11.830Z,16.37
2017-11-20T18:24:39.275Z,15.83
2017-11-20T18:27:06.713Z,17.00
2017-11-20T18:29:34.166Z,16.40
2017-11-20T18:32:01.610Z,16.87
2017-11-20T18:34:29.062Z,16.77
2017-11-20T18:36:56.516Z,15.80
2017-11-20T18:39:23.974Z,17.07
2017-11-20T18:41:51.441Z,18.07
2017-11-20T18:44:19.814Z,16.00
2017-11-20T18:46:47.274Z,18.30
2017-11-20T18:49:15.055Z,17.00
2017-11-20T18:51:42.505Z,17.10
2017-11-20T18:54:14.689Z,19.03
2017-11-20T18:56:42.544Z,19.00
2017-11-20T18:59:12.074Z,17.30
2017-11-20T19:01:51.390Z,18.17
2017-11-20T19:04:31.238Z,17.50
2017-11-20T19:07:10.642Z,17.77
2017-11-20T19:09:38.130Z,18.40
2017-11-20T19:12:06.177Z,16.70
2017-11-20T19:14:33.606Z,16.80
2017-11-20T19:17:01.057Z,16.80
2017-11-20T19:19:28.535Z,16.57
2017-11-20T19:21:55.963Z,16.37
2017-11-20T19:24:23.406Z,17.17
2017-11-20T19:26:50.886Z,17.90
2017-11-20T19:29:18.327Z,18.60
2017-11-20T19:31:45.786Z,17.67
2017-11-20T19:34:13.249Z,19.20
2017-11-20T19:36:40.690Z,18.00
2017-11-20T19:39:08.130Z,18.80
2017-11-20T19:41:35.574Z,17.60
2017-11-20T19:44:03.046Z,19.50
2017-11-20T19:46:30.507Z,19.70
2017-11-20T19:48:57.965Z,21.63
2017-11-20T19:51:25.401Z,22.30
2017-11-20T19:53:52.877Z,20.83
2017-11-20T19:56:20.585Z,21.00
2017-11-20T19:58:48.433Z,21.30
2017-11-20T20:01:15.865Z,21.90
2017-11-20T20:03:43.349Z,21.13
2017-11-20T20:06:10.806Z,21.57
2017-11-20T20:08:44.858Z,21.10
2017-11-20T20:11:12.300Z,20.50
2017-11-20T20:13:47.269Z,21.87
2017-11-20T20:16:20.422Z,21.70
2017-11-20T20:18:47.873Z,21.43
2017-11-20T20:21:15.730Z,22.23
2017-11-20T20:23:43.584Z,20.70
2017-11-20T20:26:11.023Z,21.97
2017-11-20T20:28:38.489Z,21.80
2017-11-20T20:31:05.950Z,21.97
2017-11-20T20:33:33.374Z,21.30
2017-11-20T20:36:01.098Z,22.60
2017-11-20T20:38:28.533Z,22.83
2017-11-20T20:40:55.979Z,21.70
2017-11-20T20:43:24.117Z,23.80
2017-11-20T20:45:51.576Z,22.20
2017-11-20T20:48:19.010Z,23.10
2017-11-20T20:50:46.547Z,22.57
2017-11-20T20:53:13.989Z,23.50
2017-11-20T20:55:41.491Z,21.50
2017-11-20T20:58:09.554Z,22.27
2017-11-20T21:00:36.998Z,20.17
2017-11-20T21:03:04.437Z,20.30
2017-11-20T21:05:33.826Z,21.53
2017-11-20T21:08:01.702Z,21.83
2017-11-20T21:10:34.730Z,21.57
2017-11-20T21:13:02.178Z,22.53
2017-11-20T21:15:29.626Z,23.90
2017-11-20T21:17:57.091Z,21.53
2017-11-20T21:20:24.540Z,22.90
2017-11-20T21:22:52.030Z,22.30
2017-11-20T21:25:19.877Z,20.60
2017-11-20T21:27:47.335Z,21.87
2017-11-20T21:30:14.750Z,21.07
2017-11-20T21:32:42.541Z,20.70
2017-11-20T21:35:09.983Z,20.80
2017-11-20T21:37:37.465Z,22.47
2017-11-20T21:40:04.950Z,21.47
2017-11-20T21:42:32.818Z,19.87
2017-11-20T21:45:00.259Z,20.83
2017-11-20T21:47:28.405Z,20.60
2017-11-20T21:49:55.938Z,21.73
2017-11-20T21:54:57.414Z,22.70
2017-11-20T21:57:24.857Z,22.03
2017-11-20T21:59:52.285Z,21.57
2017-11-20T22:02:19.722Z,22.13
2017-11-20T22:04:47.179Z,22.03
2017-11-20T22:07:15.036Z,21.90
2017-11-20T22:09:42.976Z,21.07
2017-11-20T22:12:10.406Z,20.83
2017-11-20T22:14:37.857Z,21.40
2017-11-20T22:17:05.309Z,21.67
2017-11-20T22:19:32.734Z,21.10
2017-11-20T22:22:00.181Z,21.40
2017-11-20T22:24:28.018Z,21.50
2017-11-20T22:26:55.571Z,20.67
2017-11-20T22:29:22.977Z,20.10
2017-11-20T22:31:50.401Z,21.33
2017-11-20T22:34:18.276Z,21.83
2017-11-20T22:36:45.736Z,21.70
2017-11-20T22:39:13.174Z,21.07
2017-11-20T22:41:41.008Z,20.73
2017-11-20T22:44:09.110Z,20.50
2017-11-20T22:46:36.530Z,19.77
2017-11-20T22:49:04.367Z,23.93
2017-11-20T22:51:31.789Z,22.60
2017-11-20T22:53:59.608Z,22.23
2017-11-20T22:56:27.043Z,21.40
2017-11-20T22:58:54.497Z,23.63
2017-11-20T23:01:21.929Z,22.43
2017-11-20T23:03:49.361Z,19.60
2017-11-20T23:06:17.193Z,21.70
2017-11-20T23:08:44.641Z,20.90
2017-11-20T23:11:12.249Z,19.07
2017-11-20T23:13:39.681Z,20.60
2017-11-20T23:16:07.113Z,19.53
2017-11-20T23:18:34.545Z,18.40
2017-11-20T23:21:02.110Z,18.73
2017-11-20T23:23:29.537Z,19.27
2017-11-20T23:25:56.966Z,19.20
2017-11-20T23:28:24.809Z,20.30
2017-11-20T23:30:52.304Z,17.03
2017-11-20T23:33:20.120Z,18.10
2017-11-20T23:35:47.561Z,18.47
2017-11-20T23:38:14.990Z,18.37
2017-11-20T23:40:42.439Z,17.80
2017-11-20T23:43:10.525Z,18.60
2017-11-20T23:45:37.953Z,19.70
2017-11-20T23:48:05.386Z,17.97
2017-11-20T23:50:32.858Z,19.53
2017-11-20T23:53:00.668Z,17.73
2017-11-20T23:55:28.111Z,19.00
2017-11-20T23:57:55.543Z,17.37
